createdAt,value
2019-02-19T00:01:00.520Z,9.73
2019-02-19T00:03:33.174Z,9.97
2019-02-19T00:06:06.092Z,10.50
2019-02-19T00:08:38.720Z,9.30
2019-02-19T00:11:11.350Z,11.87
2019-02-19T00:13:44.011Z,12.80
2019-02-19T00:16:16.631Z,10.57
2019-02-19T00:18:49.303Z,8.97
2019-02-19T00:21:21.935Z,10.13
2019-02-19T00:23:54.574Z,8.50
2019-02-19T00:26:27.229Z,10.67
2019-02-19T00:28:59.892Z,7.20
2019-02-19T00:31:32.523Z,10.23
2019-02-19T00:34:05.156Z,8.20
2019-02-19T00:36:37.787Z,11.60
2019-02-19T00:39:10.546Z,9.03
2019-02-19T00:41:43.167Z,7.97
2019-02-19T00:44:15.806Z,9.57
2019-02-19T00:46:48.451Z,8.53
2019-02-19T00:49:21.102Z,8.43
2019-02-19T00:51:53.726Z,8.27
2019-02-19T00:54:26.355Z,7.70
2019-02-19T00:56:59.083Z,9.63
2019-02-19T00:59:31.722Z,8.77
2019-02-19T01:02:04.429Z,8.67
2019-02-19T01:04:37.054Z,13.77
2019-02-19T01:07:09.738Z,9.73
2019-02-19T01:09:42.415Z,8.67
2019-02-19T01:12:15.033Z,8.13
2019-02-19T01:14:47.663Z,7.43
2019-02-19T01:17:20.306Z,7.73
2019-02-19T01:19:52.933Z,10.33
2019-02-19T01:22:25.630Z,10.60
2019-02-19T01:24:58.243Z,8.40
2019-02-19T01:27:30.978Z,6.70
2019-02-19T01:30:04.510Z,8.97
2019-02-19T01:32:37.174Z,11.87
2019-02-19T01:35:09.809Z,9.70
2019-02-19T01:37:42.467Z,8.73
2019-02-19T01:40:15.097Z,7.00
2019-02-19T01:42:47.729Z,8.87
2019-02-19T01:45:20.361Z,10.97
2019-02-19T01:47:53.046Z,9.27
2019-02-19T01:50:25.658Z,9.63
2019-02-19T01:52:58.493Z,11.10
2019-02-19T01:55:31.202Z,8.97
2019-02-19T01:58:03.991Z,10.07
2019-02-19T02:00:36.606Z,9.40
2019-02-19T02:03:09.246Z,9.17
2019-02-19T02:05:41.872Z,8.67
2019-02-19T02:08:14.502Z,7.60
2019-02-19T02:10:47.142Z,7.40
2019-02-19T02:13:19.842Z,10.50
2019-02-19T02:15:52.482Z,10.67
2019-02-19T02:18:25.398Z,9.27
2019-02-19T02:20:58.026Z,8.93
2019-02-19T02:23:30.721Z,10.47
2019-02-19T02:26:03.338Z,12.03
2019-02-19T02:28:35.979Z,12.60
2019-02-19T02:31:08.600Z,11.47
2019-02-19T02:33:41.355Z,11.30
2019-02-19T02:36:13.966Z,11.90
2019-02-19T02:38:46.621Z,17.33
2019-02-19T02:41:19.230Z,13.90
2019-02-19T02:43:51.887Z,12.83
2019-02-19T02:46:24.599Z,15.13
2019-02-19T02:48:57.241Z,10.13
2019-02-19T02:51:29.923Z,11.00
2019-02-19T02:54:02.899Z,12.60
2019-02-19T02:56:35.594Z,13.47
2019-02-19T02:59:08.304Z,13.50
2019-02-19T03:01:40.932Z,15.33
2019-02-19T03:04:13.571Z,15.60
2019-02-19T03:06:46.200Z,18.60
2019-02-19T03:09:18.843Z,17.47
2019-02-19T03:11:51.479Z,13.47
2019-02-19T03:14:24.131Z,15.07
2019-02-19T03:16:56.767Z,18.00
2019-02-19T03:19:29.558Z,16.63
2019-02-19T03:22:02.181Z,23.83
2019-02-19T03:24:34.870Z,20.00
2019-02-19T03:27:07.495Z,20.50
2019-02-19T03:29:40.162Z,15.50
2019-02-19T03:32:12.792Z,23.57
2019-02-19T03:34:45.437Z,19.43
2019-02-19T03:37:18.088Z,19.63
2019-02-19T03:39:50.929Z,20.83
2019-02-19T03:42:23.598Z,19.73
2019-02-19T03:44:56.234Z,17.87
2019-02-19T03:47:28.857Z,21.93
2019-02-19T03:50:01.491Z,22.80
2019-02-19T03:52:34.231Z,20.80
2019-02-19T03:55:06.863Z,23.27
2019-02-19T03:57:39.475Z,23.93
2019-02-19T04:00:12.115Z,23.93
2019-02-19T04:02:44.808Z,21.90
2019-02-19T04:05:17.472Z,25.57
2019-02-19T04:07:50.120Z,27.27
2019-02-19T04:10:22.765Z,25.10
2019-02-19T04:12:55.380Z,25.47
2019-02-19T04:15:28.019Z,31.03
2019-02-19T04:18:00.650Z,30.23
2019-02-19T04:20:33.295Z,28.70
2019-02-19T04:23:05.919Z,28.67
2019-02-19T04:25:38.580Z,29.33
2019-02-19T04:28:11.208Z,29.83
2019-02-19T04:30:43.837Z,34.20
2019-02-19T04:33:16.455Z,25.43
2019-02-19T04:35:49.106Z,32.13
2019-02-19T04:38:21.742Z,30.23
2019-02-19T04:40:54.530Z,33.43
2019-02-19T04:43:27.150Z,28.23
2019-02-19T04:45:59.795Z,32.50
2019-02-19T04:48:32.430Z,38.13
2019-02-19T04:51:05.064Z,37.93
2019-02-19T04:53:37.852Z,31.87
2019-02-19T04:56:11.832Z,37.00
2019-02-19T04:58:44.481Z,41.07
2019-02-19T05:01:17.110Z,40.70
2019-02-19T05:03:49.730Z,44.57
2019-02-19T05:06:22.365Z,39.10
2019-02-19T05:08:54.986Z,38.53
2019-02-19T05:11:27.633Z,39.47
2019-02-19T05:14:00.267Z,42.87
2019-02-19T05:16:40.533Z,44.13
2019-02-19T05:19:07.262Z,45.30
2019-02-19T05:21:39.934Z,45.67
2019-02-19T05:24:12.645Z,50.10
2019-02-19T05:26:45.278Z,57.00
2019-02-19T05:29:17.898Z,49.33
2019-02-19T05:31:50.554Z,52.30
2019-02-19T05:34:23.176Z,45.10
2019-02-19T05:36:55.825Z,48.37
2019-02-19T05:39:28.446Z,46.43
2019-02-19T05:42:01.081Z,47.53
2019-02-19T05:44:33.710Z,43.67
2019-02-19T05:47:06.352Z,51.27
2019-02-19T05:49:38.977Z,51.07
2019-02-19T05:52:11.628Z,46.40
2019-02-19T05:54:44.248Z,43.50
2019-02-19T05:57:17.040Z,40.70
2019-02-19T05:59:56.050Z,45.43
2019-02-19T06:02:28.696Z,43.10
2019-02-19T06:05:01.322Z,43.83
2019-02-19T06:07:33.981Z,42.90
2019-02-19T06:10:08.250Z,39.83
2019-02-19T06:12:40.883Z,40.03
2019-02-19T06:15:13.502Z,36.93
2019-02-19T06:17:46.130Z,37.60
2019-02-19T06:20:18.753Z,35.03
2019-02-19T06:22:51.402Z,41.87
2019-02-19T06:25:24.032Z,39.47
2019-02-19T06:27:56.666Z,36.03
2019-02-19T06:30:29.302Z,40.70
2019-02-19T06:33:01.966Z,40.00
2019-02-19T06:35:34.738Z,41.90
2019-02-19T06:38:07.414Z,38.23
2019-02-19T06:40:40.025Z,39.53
2019-02-19T06:43:12.778Z,36.13
2019-02-19T06:45:45.394Z,38.40
2019-02-19T06:48:18.091Z,37.67
2019-02-19T06:50:50.712Z,41.10
2019-02-19T06:53:23.370Z,36.43
2019-02-19T06:55:56.074Z,42.10
2019-02-19T06:58:28.718Z,44.13
2019-02-19T07:01:01.347Z,39.40
2019-02-19T07:03:34.002Z,42.47
2019-02-19T07:06:06.645Z,36.83
2019-02-19T07:08:39.307Z,40.63
2019-02-19T07:11:11.942Z,37.10
2019-02-19T07:13:44.590Z,35.50
2019-02-19T07:16:17.213Z,40.63
2019-02-19T07:18:49.882Z,37.80
2019-02-19T07:21:22.547Z,41.83
2019-02-19T07:24:04.205Z,35.10
2019-02-19T07:26:29.572Z,35.33
2019-02-19T07:29:02.346Z,39.17
2019-02-19T07:31:34.966Z,38.03
2019-02-19T07:34:07.630Z,32.77
2019-02-19T07:36:40.259Z,33.63
2019-02-19T07:39:12.893Z,32.30
2019-02-19T07:41:45.621Z,30.33
2019-02-19T07:44:18.246Z,32.87
2019-02-19T07:46:50.940Z,30.30
2019-02-19T07:49:23.598Z,31.70
2019-02-19T07:51:56.228Z,31.97
2019-02-19T07:54:28.872Z,36.13
2019-02-19T07:57:01.505Z,31.83
2019-02-19T07:59:34.137Z,32.67
2019-02-19T08:02:06.750Z,29.53
2019-02-19T08:04:39.405Z,29.27
2019-02-19T08:07:12.038Z,27.37
2019-02-19T08:09:44.712Z,29.10
2019-02-19T08:12:17.314Z,24.43
2019-02-19T08:14:49.991Z,27.77
2019-02-19T08:17:22.901Z,26.57
2019-02-19T08:19:55.575Z,27.37
2019-02-19T08:22:28.254Z,29.33
2019-02-19T08:25:00.888Z,30.07
2019-02-19T08:27:33.522Z,25.60
2019-02-19T08:30:06.230Z,23.43
2019-02-19T08:32:38.881Z,24.97
2019-02-19T08:35:11.698Z,26.23
2019-02-19T08:37:44.467Z,24.17
2019-02-19T08:40:17.134Z,23.23
2019-02-19T08:42:49.770Z,27.23
2019-02-19T08:45:22.405Z,28.03
2019-02-19T08:47:55.082Z,23.80
2019-02-19T08:50:27.747Z,26.33
2019-02-19T08:53:00.396Z,29.30
2019-02-19T08:55:34.818Z,23.33
2019-02-19T08:58:07.386Z,26.97
2019-02-19T09:00:40.023Z,23.00
2019-02-19T09:03:12.658Z,20.00
2019-02-19T09:05:45.303Z,25.20
2019-02-19T09:08:17.945Z,20.73
2019-02-19T09:10:50.592Z,26.03
2019-02-19T09:13:23.213Z,22.23
2019-02-19T09:15:55.860Z,23.47
2019-02-19T09:18:28.490Z,23.40
2019-02-19T09:21:01.137Z,21.33
2019-02-19T09:23:33.774Z,19.27
2019-02-19T09:26:06.425Z,22.00
2019-02-19T09:28:39.089Z,20.43
2019-02-19T09:31:11.732Z,22.57
2019-02-19T09:33:44.367Z,24.60
2019-02-19T09:36:17.035Z,22.67
2019-02-19T09:38:49.674Z,27.40
2019-02-19T09:41:22.314Z,21.67
2019-02-19T09:43:54.949Z,21.17
2019-02-19T09:46:27.586Z,31.10
2019-02-19T09:49:00.223Z,24.10
2019-02-19T09:51:32.978Z,16.00
2019-02-19T09:54:05.690Z,20.83
2019-02-19T09:56:38.350Z,20.17
2019-02-19T09:59:10.981Z,17.87
2019-02-19T10:01:43.622Z,19.80
2019-02-19T10:04:16.274Z,17.20
2019-02-19T10:06:48.912Z,17.03
2019-02-19T10:09:21.758Z,21.80
2019-02-19T10:11:54.698Z,14.97
2019-02-19T10:14:27.363Z,14.37
2019-02-19T10:16:59.991Z,15.30
2019-02-19T10:19:32.793Z,12.77
2019-02-19T10:22:05.512Z,13.30
2019-02-19T10:24:38.134Z,11.00
2019-02-19T10:27:10.779Z,17.67
2019-02-19T10:29:43.455Z,12.27
2019-02-19T10:32:16.114Z,11.73
2019-02-19T10:34:48.747Z,16.37
2019-02-19T10:37:21.402Z,13.43
2019-02-19T10:39:54.025Z,9.87
2019-02-19T10:42:26.687Z,12.90
2019-02-19T10:44:59.302Z,11.70
2019-02-19T10:47:31.954Z,14.37
2019-02-19T10:50:04.745Z,14.43
2019-02-19T10:52:37.398Z,11.20
2019-02-19T10:55:10.028Z,11.57
2019-02-19T10:57:42.670Z,11.50
2019-02-19T11:00:15.334Z,8.43
2019-02-19T11:02:48.019Z,14.60
2019-02-19T11:05:20.715Z,13.17
2019-02-19T11:07:53.514Z,15.47
2019-02-19T11:10:31.686Z,11.27
2019-02-19T11:13:04.243Z,15.60
2019-02-19T11:15:36.986Z,14.27
2019-02-19T11:18:09.639Z,11.70
2019-02-19T11:20:42.286Z,12.57
2019-02-19T11:23:15.007Z,9.80
2019-02-19T11:25:47.632Z,11.87
2019-02-19T11:28:20.507Z,11.17
2019-02-19T11:30:53.134Z,10.50
2019-02-19T11:33:25.790Z,11.57
2019-02-19T11:35:58.426Z,10.77
2019-02-19T11:38:31.092Z,11.70
2019-02-19T11:41:03.711Z,10.43
2019-02-19T11:43:36.375Z,14.10
2019-02-19T11:46:09.013Z,12.17
2019-02-19T11:48:41.666Z,8.70
2019-02-19T11:51:14.299Z,13.30
2019-02-19T11:53:46.937Z,10.60
2019-02-19T11:56:19.647Z,11.47
2019-02-19T11:58:52.317Z,11.70
2019-02-19T12:01:24.947Z,12.07
2019-02-19T12:03:57.608Z,8.67
2019-02-19T12:06:30.303Z,8.53
2019-02-19T12:09:03.131Z,11.23
2019-02-19T12:11:35.775Z,11.53
2019-02-19T12:14:08.495Z,8.23
2019-02-19T12:16:41.139Z,7.03
2019-02-19T12:19:13.765Z,11.63
2019-02-19T12:21:46.394Z,9.80
2019-02-19T12:24:19.059Z,7.23
2019-02-19T12:26:51.678Z,8.13
2019-02-19T12:29:24.358Z,9.93
2019-02-19T12:31:56.982Z,8.23
2019-02-19T12:34:29.626Z,10.67
2019-02-19T12:37:02.263Z,12.43
2019-02-19T12:39:34.994Z,9.50
2019-02-19T12:42:07.626Z,14.20
2019-02-19T12:44:40.289Z,7.00
2019-02-19T12:47:12.909Z,13.43
2019-02-19T12:49:45.568Z,12.97
2019-02-19T12:52:18.210Z,9.23
2019-02-19T12:54:50.842Z,12.47
2019-02-19T12:57:23.461Z,8.73
2019-02-19T12:59:56.780Z,8.90
2019-02-19T13:02:29.602Z,13.03
2019-02-19T13:05:02.334Z,10.07
2019-02-19T13:07:34.941Z,9.13
2019-02-19T13:10:08.094Z,9.60
2019-02-19T13:12:40.739Z,13.50
2019-02-19T13:15:13.717Z,10.07
2019-02-19T13:17:46.338Z,9.73
2019-02-19T13:20:18.995Z,9.13
2019-02-19T13:22:51.619Z,9.30
2019-02-19T13:25:24.261Z,9.53
2019-02-19T13:27:56.912Z,12.67
2019-02-19T13:30:29.562Z,8.90
2019-02-19T13:33:02.191Z,6.70
2019-02-19T13:35:34.865Z,7.07
2019-02-19T13:38:07.495Z,7.67
2019-02-19T13:40:40.159Z,8.43
2019-02-19T13:43:12.777Z,7.90
2019-02-19T13:45:45.423Z,10.87
2019-02-19T13:48:18.055Z,10.70
2019-02-19T13:50:50.697Z,9.20
2019-02-19T13:53:23.690Z,8.13
2019-02-19T13:55:56.379Z,11.60
2019-02-19T13:58:29.158Z,7.43
2019-02-19T14:01:02.007Z,8.47
2019-02-19T14:03:35.568Z,9.83
2019-02-19T14:06:08.381Z,8.37
2019-02-19T14:08:41.262Z,8.63
2019-02-19T14:11:15.829Z,9.27
2019-02-19T14:13:50.274Z,6.77
2019-02-19T14:16:23.037Z,8.57
2019-02-19T14:18:55.680Z,10.60
2019-02-19T14:21:28.317Z,7.43
2019-02-19T14:24:03.338Z,7.30
2019-02-19T14:26:36.091Z,6.23
2019-02-19T14:29:08.783Z,12.00
2019-02-19T14:31:46.057Z,7.10
2019-02-19T14:34:24.471Z,7.47
2019-02-19T14:36:57.203Z,11.57
2019-02-19T14:39:30.036Z,9.10
2019-02-19T14:42:02.682Z,6.77
2019-02-19T14:44:35.679Z,8.57
2019-02-19T14:47:08.408Z,9.00
2019-02-19T14:49:47.135Z,11.33
2019-02-19T14:52:15.459Z,10.57
2019-02-19T14:54:48.090Z,10.17
2019-02-19T14:57:20.754Z,8.00
2019-02-19T14:59:53.395Z,9.93
2019-02-19T15:02:26.136Z,11.43
2019-02-19T15:04:58.765Z,12.30
2019-02-19T15:07:31.433Z,7.77
2019-02-19T15:10:04.850Z,8.97
2019-02-19T15:12:37.512Z,6.57
2019-02-19T15:15:10.168Z,11.77
2019-02-19T15:17:42.869Z,5.80
2019-02-19T15:20:15.499Z,8.93
2019-02-19T15:22:48.163Z,8.13
2019-02-19T15:25:20.825Z,7.77
2019-02-19T15:27:53.505Z,9.67
2019-02-19T15:30:26.180Z,9.77
2019-02-19T15:32:58.882Z,12.47
2019-02-19T15:35:31.511Z,10.07
2019-02-19T15:38:04.175Z,11.33
2019-02-19T15:40:36.960Z,11.73
2019-02-19T15:43:09.599Z,5.97
2019-02-19T15:45:42.322Z,7.83
2019-02-19T15:48:14.969Z,8.10
2019-02-19T15:50:47.587Z,8.60
2019-02-19T15:53:20.234Z,10.03
2019-02-19T15:55:52.862Z,9.63
2019-02-19T15:58:25.568Z,8.57
2019-02-19T16:00:58.246Z,8.27
2019-02-19T16:03:30.926Z,13.60
2019-02-19T16:06:03.605Z,11.27
2019-02-19T16:08:36.248Z,9.73
2019-02-19T16:11:08.882Z,8.23
2019-02-19T16:13:41.533Z,9.10
2019-02-19T16:16:14.158Z,8.73
2019-02-19T16:18:46.833Z,8.23
2019-02-19T16:21:19.573Z,7.50
2019-02-19T16:23:52.647Z,7.73
2019-02-19T16:26:25.457Z,7.30
2019-02-19T16:28:58.127Z,8.20
2019-02-19T16:31:30.912Z,12.80
2019-02-19T16:34:03.586Z,12.17
2019-02-19T16:36:36.282Z,17.73
2019-02-19T16:39:09.003Z,8.70
2019-02-19T16:41:41.649Z,9.83
2019-02-19T16:44:14.445Z,12.37
2019-02-19T16:46:47.081Z,9.23
2019-02-19T16:49:19.995Z,11.60
2019-02-19T16:51:54.980Z,10.17
2019-02-19T16:54:27.626Z,11.33
2019-02-19T16:57:01.435Z,15.63
2019-02-19T16:59:34.150Z,11.60
2019-02-19T17:02:06.845Z,8.30
2019-02-19T17:04:39.485Z,13.83
2019-02-19T17:07:12.108Z,10.23
2019-02-19T17:09:44.771Z,11.63
2019-02-19T17:12:17.467Z,13.93
2019-02-19T17:14:50.118Z,7.77
2019-02-19T17:17:23.098Z,16.27
2019-02-19T17:19:55.803Z,12.30
2019-02-19T17:22:28.507Z,13.87
2019-02-19T17:25:01.202Z,10.90
2019-02-19T17:27:33.892Z,15.00
2019-02-19T17:30:07.519Z,11.33
2019-02-19T17:32:42.028Z,10.13
2019-02-19T17:35:14.662Z,10.43
2019-02-19T17:37:47.395Z,11.10
2019-02-19T17:40:20.034Z,12.37
2019-02-19T17:42:52.901Z,14.33
2019-02-19T17:45:25.578Z,12.33
2019-02-19T17:47:58.281Z,11.43
2019-02-19T17:50:38.190Z,12.23
2019-02-19T17:53:05.345Z,10.80
2019-02-19T17:55:38.041Z,10.53
2019-02-19T17:58:10.669Z,11.47
2019-02-19T18:00:43.415Z,10.00
2019-02-19T18:03:18.050Z,11.60
2019-02-19T18:05:50.696Z,12.30
2019-02-19T18:08:23.614Z,18.70
2019-02-19T18:10:56.510Z,14.13
2019-02-19T18:13:29.223Z,14.53
2019-02-19T18:16:02.129Z,16.10
2019-02-19T18:18:34.928Z,12.20
2019-02-19T18:21:07.658Z,16.80
2019-02-19T18:23:59.636Z,21.97
2019-02-19T18:26:32.483Z,16.50
2019-02-19T18:29:05.182Z,17.67
2019-02-19T18:31:37.940Z,18.13
2019-02-19T18:34:10.725Z,17.50
2019-02-19T18:36:43.506Z,14.43
2019-02-19T18:39:16.517Z,18.60
2019-02-19T18:41:51.610Z,14.67
2019-02-19T18:44:24.422Z,15.53
2019-02-19T18:46:57.082Z,13.03
2019-02-19T18:49:29.698Z,16.20
2019-02-19T18:52:02.442Z,11.97
2019-02-19T18:54:35.048Z,15.43
2019-02-19T18:57:07.730Z,13.93
2019-02-19T18:59:40.434Z,15.03
2019-02-19T19:02:13.094Z,16.33
2019-02-19T19:04:45.839Z,18.90
2019-02-19T19:07:19.861Z,17.90
2019-02-19T19:09:52.528Z,21.40
2019-02-19T19:12:25.198Z,13.27
2019-02-19T19:14:57.847Z,12.30
2019-02-19T19:17:30.643Z,16.10
2019-02-19T19:20:03.486Z,12.23
2019-02-19T19:22:36.234Z,15.53
2019-02-19T19:25:08.929Z,10.60
2019-02-19T19:27:41.641Z,9.60
2019-02-19T19:30:14.290Z,10.87
2019-02-19T19:32:49.845Z,9.77
2019-02-19T19:35:22.510Z,11.70
2019-02-19T19:37:55.161Z,10.93
2019-02-19T19:40:27.970Z,11.47
2019-02-19T19:43:00.672Z,14.37
2019-02-19T19:45:33.323Z,14.30
2019-02-19T19:48:06.112Z,13.37
2019-02-19T19:50:40.603Z,10.37
2019-02-19T19:53:13.294Z,13.10
2019-02-19T19:55:45.965Z,9.93
2019-02-19T19:58:18.724Z,13.30
2019-02-19T20:00:53.328Z,14.20
2019-02-19T20:03:25.999Z,13.37
2019-02-19T20:05:58.916Z,16.80
2019-02-19T20:08:31.584Z,18.03
2019-02-19T20:11:06.745Z,18.60
2019-02-19T20:13:39.563Z,16.23
2019-02-19T20:16:17.825Z,14.77
2019-02-19T20:18:50.732Z,16.10
2019-02-19T20:21:27.244Z,14.73
2019-02-19T20:24:02.333Z,16.43
2019-02-19T20:26:35.166Z,16.27
2019-02-19T20:29:07.807Z,20.50
2019-02-19T20:31:40.461Z,10.47
2019-02-19T20:34:13.087Z,12.67
2019-02-19T20:36:45.725Z,15.03
2019-02-19T20:39:18.350Z,12.73
2019-02-19T20:41:50.987Z,13.43
2019-02-19T20:44:23.932Z,17.93
2019-02-19T20:46:56.583Z,16.47
2019-02-19T20:49:29.208Z,15.47
2019-02-19T20:52:01.824Z,16.40
2019-02-19T20:54:35.097Z,12.83
2019-02-19T20:57:07.748Z,15.70
2019-02-19T20:59:40.410Z,17.80
2019-02-19T21:02:13.024Z,14.87
2019-02-19T21:04:46.811Z,17.30
2019-02-19T21:07:19.599Z,11.07
2019-02-19T21:09:52.323Z,15.00
2019-02-19T21:12:25.072Z,12.93
2019-02-19T21:14:57.730Z,20.63
2019-02-19T21:17:30.355Z,15.53
2019-02-19T21:20:03.056Z,17.17
2019-02-19T21:22:35.685Z,18.90
2019-02-19T21:25:08.498Z,15.40
2019-02-19T21:27:44.403Z,15.43
2019-02-19T21:30:16.822Z,13.53
2019-02-19T21:32:49.446Z,14.30
2019-02-19T21:35:22.092Z,15.53
2019-02-19T21:37:54.719Z,18.03
2019-02-19T21:40:27.380Z,19.37
2019-02-19T21:43:00.002Z,19.73
2019-02-19T21:45:32.702Z,30.00
2019-02-19T21:48:05.360Z,18.43
2019-02-19T21:50:38.049Z,20.10
2019-02-19T21:53:10.782Z,15.67
2019-02-19T21:55:43.495Z,21.93
2019-02-19T21:58:16.286Z,18.30
2019-02-19T22:00:48.945Z,16.93
2019-02-19T22:03:21.578Z,19.07
2019-02-19T22:05:54.224Z,20.40
2019-02-19T22:08:26.882Z,22.37
2019-02-19T22:10:59.586Z,19.80
2019-02-19T22:13:32.199Z,16.43
2019-02-19T22:16:04.852Z,25.97
2019-02-19T22:18:37.507Z,20.10
2019-02-19T22:21:10.182Z,24.00
2019-02-19T22:23:42.803Z,20.43
2019-02-19T22:26:15.440Z,22.20
2019-02-19T22:28:48.061Z,18.43
2019-02-19T22:31:20.698Z,19.00
2019-02-19T22:33:53.324Z,17.10
2019-02-19T22:36:25.938Z,24.73
2019-02-19T22:39:10.722Z,20.60
2019-02-19T22:41:43.352Z,18.10
2019-02-19T22:44:16.077Z,14.50
2019-02-19T22:46:48.727Z,21.10
2019-02-19T22:49:21.358Z,22.27
2019-02-19T22:51:53.986Z,17.17
2019-02-19T22:54:26.615Z,16.90
2019-02-19T22:56:59.313Z,15.43
2019-02-19T22:59:31.934Z,16.40
2019-02-19T23:02:04.585Z,16.23
2019-02-19T23:04:37.222Z,17.10
2019-02-19T23:07:09.852Z,18.00
2019-02-19T23:09:42.492Z,17.30
2019-02-19T23:12:15.174Z,15.60
2019-02-19T23:14:47.770Z,17.60
2019-02-19T23:17:20.508Z,21.63
2019-02-19T23:19:53.154Z,19.37
2019-02-19T23:22:25.795Z,20.70
2019-02-19T23:24:58.422Z,14.77
2019-02-19T23:27:31.053Z,21.13
2019-02-19T23:30:04.254Z,17.77
2019-02-19T23:32:36.906Z,17.17
2019-02-19T23:35:09.522Z,15.60
2019-02-19T23:37:42.176Z,16.43
2019-02-19T23:40:14.810Z,10.97
2019-02-19T23:42:47.574Z,15.47
2019-02-19T23:45:20.194Z,19.03
2019-02-19T23:47:52.841Z,15.57
2019-02-19T23:50:25.461Z,13.90
2019-02-19T23:52:58.102Z,16.37
2019-02-19T23:55:31.975Z,14.90
2019-02-19T23:58:04.634Z,18.50
